Thunder radar more information blitzortung!


Radar de pluja more information rain snow radar


Visita la nostra xarxa de llocs de meteo:

Template documentation
and downloads

And another site



No particular awareness of the weather is required.    There are no Weather-warnings

Pagina Historial Weather Underground text

Diari Resum January 18, 2018 Unitats:  Imperial    Mètric   Tant
« Previous Dia
SegĂźent Dia »
Diari Setmana Mensual Anual Personalitzada
  Maxima: Minima: Media:
Temperatura: TemperatureC °F 3.7 °F 8.2 °F
Punt de rosada: DewpointC °F -2.5 °F 0.2 °F
Humitat: Humidity % 50 % 57 %
Wind Speed: WindSpeedKMH mph 0.0 mph 4.1 mph
RĂ fegues de vent: WindSpeedGustKMH mph - -
Vent:- - SSE
Pression baro: PressurehPa in 1016.8 in -
Precipitacions: 0.0 in    
Historical Graphs
 
 
Dades de taula per January 18, 2018
Temps Temperatura Punt de rosada Pression baro Vent Wind Speed RĂ fegues de vent Humitat Rainfall Rate (Hourly)
TemperatureC °F DewpointC °F PressurehPa in Calm     Humidity % HourlyPrecipMM in
00:00 5.1 °F -1.8 °F 1024.9 in Calm     61 % 0.0 in
00:03 9.2 °F -0.4 °F 1026.0 in WNW 3.9 mph 3.9 mph 51 % 0.0 in
00:08 9.2 °F -0.2 °F 1026.0 in NNE 1.9 mph 1.9 mph 52 % 0.0 in
00:10 5.1 °F -1.6 °F 1023.9 in Calm   1.6 mph 62 % 0.0 in
00:13 9.2 °F -0.2 °F 1026.0 in WNW 3.7 mph 3.7 mph 52 % 0.0 in
00:18 9.2 °F -0.2 °F 1026.0 in NNE 7.6 mph 7.6 mph 52 % 0.0 in
00:20 5.0 °F -1.7 °F 1023.9 in NNW 1.6 mph 1.6 mph 62 % 0.0 in
00:23 9.1 °F -0.3 °F 1026.0 in NNE 3.7 mph 3.7 mph 52 % 0.0 in
00:28 9.0 °F -0.3 °F 1026.0 in ENE 3.9 mph 3.9 mph 52 % 0.0 in
00:29 9.0 °F -0.3 °F 1026.0 in ENE 7.4 mph 7.4 mph 52 % 0.0 in
00:30 5.0 °F -1.7 °F 1023.9 in North 1.6 mph 3.2 mph 62 % 0.0 in
00:34 9.0 °F -0.3 °F 1026.0 in North 3.7 mph 3.7 mph 52 % 0.0 in
00:39 9.0 °F -0.3 °F 1026.0 in North 5.6 mph 5.6 mph 52 % 0.0 in
00:40 5.0 °F -1.7 °F 1024.9 in NW 1.6 mph 3.2 mph 62 % 0.0 in
00:44 9.0 °F -0.3 °F 1026.0 in NW 5.6 mph 5.6 mph 52 % 0.0 in
00:49 9.0 °F -0.3 °F 1026.0 in NNW 3.9 mph 3.9 mph 52 % 0.0 in
00:50 5.0 °F -1.7 °F 1024.9 in WNW 1.6 mph 1.6 mph 62 % 0.0 in
00:54 8.9 °F -0.4 °F 1026.0 in NNE 3.7 mph 3.7 mph 52 % 0.0 in
00:59 8.9 °F -0.4 °F 1026.0 in West 7.4 mph 7.4 mph 52 % 0.0 in
01:00 4.8 °F -1.9 °F 1024.9 in Calm   3.2 mph 62 % 0.0 in
01:04 8.9 °F -0.2 °F 1026.0 in Calm     53 % 0.0 in
01:09 8.8 °F -0.3 °F 1026.0 in NNE 3.7 mph 3.7 mph 53 % 0.0 in
01:10 4.7 °F -1.8 °F 1024.9 in NW 1.6 mph 3.2 mph 63 % 0.0 in
01:14 8.7 °F -0.3 °F 1026.0 in NNE 3.7 mph 3.7 mph 53 % 0.0 in
01:19 8.7 °F -0.3 °F 1026.0 in WNW 3.7 mph 3.7 mph 53 % 0.0 in
01:20 4.6 °F -1.8 °F 1024.9 in NNE 1.6 mph 6.4 mph 63 % 0.0 in
01:24 8.6 °F -0.4 °F 1026.0 in West 1.9 mph   53 % 0.0 in
01:29 8.5 °F -0.6 °F 1026.0 in NW 1.9 mph   53 % 0.0 in
01:30 4.5 °F -1.9 °F 1024.9 in NE 3.2 mph 4.8 mph 63 % 0.0 in
01:34 8.5 °F -0.6 °F 1026.0 in WNW 3.7 mph 3.7 mph 53 % 0.0 in
01:39 8.5 °F -0.6 °F 1026.0 in WNW 3.7 mph 3.7 mph 53 % 0.0 in
01:40 4.4 °F -2.1 °F 1024.9 in NNE 1.6 mph 6.4 mph 63 % 0.0 in
01:44 8.5 °F -0.3 °F 1026.0 in ENE 3.7 mph 3.7 mph 54 % 0.0 in
01:49 8.5 °F -0.3 °F 1026.0 in Calm     54 % 0.0 in
01:50 4.3 °F -2.1 °F 1026.0 in North 1.6 mph 4.8 mph 63 % 0.0 in
01:54 8.4 °F -0.4 °F 1026.0 in Calm     54 % 0.0 in
01:59 8.4 °F -0.4 °F 1026.0 in North 3.5 mph   54 % 0.0 in
02:00 4.2 °F -2.0 °F 1026.0 in NE 1.6 mph 4.8 mph 64 % 0.0 in
02:04 8.3 °F -0.5 °F 1026.0 in NNE 3.7 mph 3.7 mph 54 % 0.0 in
02:09 8.3 °F -0.5 °F 1026.0 in ENE 3.7 mph 3.7 mph 54 % 0.0 in
02:10 4.0 °F -2.2 °F 1026.0 in Calm   4.8 mph 64 % 0.0 in
02:14 8.2 °F -0.6 °F 1026.0 in Calm     54 % 0.0 in
02:19 8.1 °F -0.7 °F 1026.0 in NNW 3.9 mph 3.9 mph 54 % 0.0 in
02:20 3.9 °F -2.5 °F 1026.0 in NNE 4.8 mph 4.8 mph 63 % 0.0 in
02:24 8.1 °F -0.7 °F 1026.0 in North 3.7 mph 3.7 mph 54 % 0.0 in
02:29 8.0 °F -0.8 °F 1026.0 in WNW 1.9 mph   54 % 0.0 in
02:30 3.9 °F -2.3 °F 1026.0 in North 1.6 mph 3.2 mph 64 % 0.0 in
02:34 7.9 °F -0.8 °F 1026.0 in NE 3.7 mph 3.7 mph 54 % 0.0 in
02:39 7.8 °F -0.9 °F 1026.0 in West 1.9 mph 1.9 mph 54 % 0.0 in
02:40 4.1 °F -2.1 °F 1026.0 in North 3.2 mph 4.8 mph 64 % 0.0 in
02:44 7.7 °F -0.8 °F 1026.0 in Calm     55 % 0.0 in
02:49 7.6 °F -0.9 °F 1024.9 in West 1.9 mph 1.9 mph 55 % 0.0 in
02:50 4.3 °F -1.7 °F 1024.9 in North 1.6 mph 3.2 mph 65 % 0.0 in
02:54 7.3 °F -1.2 °F 1024.9 in Calm     55 % 0.0 in
02:59 7.2 °F -1.2 °F 1024.9 in Calm     55 % 0.0 in
03:00 4.8 °F -1.2 °F 1024.9 in Calm   3.2 mph 65 % 0.0 in
03:04 7.1 °F -1.1 °F 1026.0 in Calm     56 % 0.0 in
03:09 7.0 °F -1.2 °F 1026.0 in Calm     56 % 0.0 in
03:10 5.2 °F -0.8 °F 1026.0 in North 1.6 mph 3.2 mph 65 % 0.0 in
03:14 6.9 °F -1.3 °F 1026.0 in Calm     56 % 0.0 in
03:19 6.9 °F -1.1 °F 1026.0 in NNW 3.7 mph 3.7 mph 57 % 0.0 in
03:20 5.7 °F -0.6 °F 1024.9 in NE 1.6 mph 4.8 mph 64 % 0.0 in
03:24 6.8 °F -1.1 °F 1026.0 in Calm     57 % 0.0 in
03:29 6.8 °F -1.1 °F 1026.0 in West 3.7 mph 3.7 mph 57 % 0.0 in
03:30 5.7 °F -0.8 °F 1024.9 in NE 4.8 mph 4.8 mph 63 % 0.0 in
03:34 6.8 °F -1.1 °F 1024.9 in Calm     57 % 0.0 in
03:39 6.8 °F -1.1 °F 1024.9 in Calm     57 % 0.0 in
03:40 6.0 °F -0.3 °F 1027.0 in NE 1.6 mph 3.2 mph 64 % 0.0 in
03:44 6.8 °F -1.1 °F 1024.9 in NW 3.7 mph   57 % 0.0 in
03:50 5.8 °F -0.7 °F 1026.0 in NE 4.8 mph 4.8 mph 63 % 0.0 in
04:00 6.1 °F -0.4 °F 1026.0 in NE 3.2 mph 4.8 mph 63 % 0.0 in
04:10 6.3 °F -0.4 °F 1026.0 in NE 4.8 mph 4.8 mph 62 % 0.0 in
04:20 6.7 °F -0.1 °F 1024.9 in NE 3.2 mph 4.8 mph 62 % 0.0 in
10:23 7.0 °F 0.2 °F 1024.9 in NNE 3.7 mph 3.7 mph 62 % 0.0 in
10:28 6.8 °F 0.0 °F 1024.9 in NNE 9.3 mph 9.3 mph 62 % 0.0 in
10:33 7.1 °F 0.3 °F 1026.0 in NNE 5.3 mph 5.3 mph 62 % 0.0 in
10:38 7.3 °F 0.5 °F 1026.0 in ENE 3.7 mph 3.7 mph 62 % 0.0 in
10:43 7.4 °F 0.4 °F 1026.0 in NNE 5.6 mph 5.6 mph 61 % 0.0 in
10:48 7.3 °F 0.3 °F 1026.0 in NE 7.4 mph 7.4 mph 61 % 0.0 in
10:53 7.2 °F 0.2 °F 1026.0 in NE 9.3 mph 9.3 mph 61 % 0.0 in
10:58 7.7 °F 0.7 °F 1026.0 in NE 11.1 mph 11.1 mph 61 % 0.0 in
11:03 7.6 °F 0.6 °F 1024.9 in ENE 11.1 mph 11.1 mph 61 % 0.0 in
11:08 7.6 °F 0.6 °F 1024.9 in ENE 10.8 mph 10.8 mph 61 % 0.0 in
11:13 7.7 °F 0.7 °F 1024.9 in NNW 7.4 mph 7.4 mph 61 % 0.0 in
11:18 8.3 °F 1.2 °F 1026.0 in WNW 7.4 mph 7.4 mph 61 % 0.0 in
11:23 8.4 °F 1.3 °F 1026.0 in North 5.6 mph 5.6 mph 61 % 0.0 in
11:28 8.1 °F 0.8 °F 1026.0 in NNE 9.3 mph 9.3 mph 60 % 0.0 in
11:33 8.0 °F 0.7 °F 1026.0 in NNW 9.3 mph 9.3 mph 60 % 0.0 in
11:38 8.0 °F 0.7 °F 1026.0 in NNE 9.3 mph 9.3 mph 60 % 0.0 in
11:43 8.2 °F 0.9 °F 1026.0 in NNE 11.1 mph 11.1 mph 60 % 0.0 in
11:48 8.1 °F 0.8 °F 1026.0 in NNE 11.1 mph 11.1 mph 60 % 0.0 in
11:53 8.1 °F 0.8 °F 1026.0 in ENE 13.0 mph 13.0 mph 60 % 0.0 in
11:58 8.3 °F 1.0 °F 1026.0 in NNE 7.4 mph 7.4 mph 60 % 0.0 in
12:03 8.3 °F 1.0 °F 1024.9 in NNE 9.3 mph 9.3 mph 60 % 0.0 in
12:08 8.3 °F 1.0 °F 1024.9 in NE 9.3 mph 9.3 mph 60 % 0.0 in
12:13 8.4 °F 1.1 °F 1024.9 in NNE 13.0 mph 13.0 mph 60 % 0.0 in
12:18 8.5 °F 1.2 °F 1023.9 in NNE 10.0 mph 10.0 mph 60 % 0.0 in
12:19 8.5 °F 1.2 °F 1023.9 in NNE 10.0 mph 10.0 mph 60 % 0.0 in
12:24 8.6 °F 1.3 °F 1023.9 in ENE 13.0 mph 13.0 mph 60 % 0.0 in
12:29 9.0 °F 1.4 °F 1023.9 in ENE 11.1 mph 11.1 mph 59 % 0.0 in
12:34 9.2 °F 1.6 °F 1023.9 in ENE 5.6 mph 6.1 mph 59 % 0.0 in
12:39 9.3 °F 1.7 °F 1023.9 in North 9.3 mph 9.3 mph 59 % 0.0 in
12:44 9.5 °F 1.9 °F 1023.9 in East 3.7 mph 3.9 mph 59 % 0.0 in
12:49 9.7 °F 2.1 °F 1022.9 in WSW 5.6 mph 5.6 mph 59 % 0.0 in
12:54 9.6 °F 1.7 °F 1022.9 in NNE 10.8 mph 10.8 mph 58 % 0.0 in
12:59 9.4 °F 1.6 °F 1022.9 in NE 5.6 mph 5.6 mph 58 % 0.0 in
13:04 9.5 °F 1.6 °F 1022.9 in NNE 9.3 mph 9.3 mph 58 % 0.0 in
13:09 9.8 °F 1.9 °F 1022.9 in North 9.3 mph 9.3 mph 58 % 0.0 in
13:14 9.7 °F 1.6 °F 1022.9 in ENE 8.7 mph 8.7 mph 57 % 0.0 in
13:19 9.8 °F 1.7 °F 1023.9 in NNE 7.4 mph 7.4 mph 57 % 0.0 in
13:24 10.1 °F 1.9 °F 1023.9 in NNW 7.4 mph 7.4 mph 57 % 0.0 in
13:29 10.2 °F 2.1 °F 1023.9 in NNE 9.3 mph 9.3 mph 57 % 0.0 in
13:34 10.1 °F 1.7 °F 1022.9 in NE 7.4 mph 7.4 mph 56 % 0.0 in
13:39 10.0 °F 1.6 °F 1022.9 in ENE 9.3 mph 9.3 mph 56 % 0.0 in
13:44 10.3 °F 2.2 °F 1022.9 in NE 6.1 mph 6.1 mph 57 % 0.0 in
13:49 10.2 °F 1.8 °F 1022.9 in NNE 9.3 mph 9.3 mph 56 % 0.0 in
13:54 10.5 °F 2.1 °F 1022.9 in ENE 10.0 mph 10.0 mph 56 % 0.0 in
13:59 10.6 °F 2.2 °F 1022.9 in NE 6.4 mph 6.4 mph 56 % 0.0 in
14:04 10.6 °F 2.2 °F 1023.9 in NNE 7.4 mph 7.4 mph 56 % 0.0 in
14:09 10.5 °F 1.8 °F 1023.9 in SE 7.4 mph 7.4 mph 55 % 0.0 in
14:14 10.7 °F 2.3 °F 1023.9 in NE 3.7 mph 3.7 mph 56 % 0.0 in
14:19 10.8 °F 2.4 °F 1022.9 in NW 3.5 mph 3.5 mph 56 % 0.0 in
14:24 11.0 °F 2.6 °F 1022.9 in NW 3.7 mph 3.7 mph 56 % 0.0 in
14:29 11.1 °F 2.4 °F 1022.9 in ESE 5.6 mph 5.6 mph 55 % 0.0 in
14:34 11.1 °F 2.4 °F 1022.9 in ENE 3.7 mph 3.7 mph 55 % 0.0 in
14:39 11.2 °F 2.5 °F 1022.9 in NE 4.7 mph 4.7 mph 55 % 0.0 in
14:44 11.4 °F 2.7 °F 1022.9 in NE 3.7 mph 3.7 mph 55 % 0.0 in
14:49 11.5 °F 2.8 °F 1021.9 in ENE 3.7 mph 3.7 mph 55 % 0.0 in
14:54 11.7 °F 2.9 °F 1021.9 in NE 5.6 mph 5.6 mph 55 % 0.0 in
14:59 11.6 °F 2.6 °F 1021.9 in NNE 7.4 mph 7.4 mph 54 % 0.0 in
15:04 11.6 °F 2.6 °F 1021.9 in ENE 6.4 mph 6.4 mph 54 % 0.0 in
15:09 11.7 °F 2.7 °F 1021.9 in North 5.6 mph 5.6 mph 54 % 0.0 in
15:14 11.8 °F 2.8 °F 1021.9 in ENE 3.7 mph 3.7 mph 54 % 0.0 in
15:19 12.0 °F 2.9 °F 1021.9 in ESE 5.6 mph 5.6 mph 54 % 0.0 in
15:24 12.1 °F 3.1 °F 1021.9 in ESE 5.6 mph 5.6 mph 54 % 0.0 in
15:29 12.2 °F 3.2 °F 1021.9 in ENE 5.6 mph 5.6 mph 54 % 0.0 in
15:34 12.2 °F 3.2 °F 1021.9 in NNE 7.4 mph 7.4 mph 54 % 0.0 in
15:39 12.2 °F 3.2 °F 1021.9 in NE 6.4 mph 6.4 mph 54 % 0.0 in
15:44 12.3 °F 3.0 °F 1021.9 in ENE 7.4 mph 7.4 mph 53 % 0.0 in
15:49 12.4 °F 3.1 °F 1021.9 in NNW 5.0 mph 5.0 mph 53 % 0.0 in
15:54 12.7 °F 3.3 °F 1021.9 in NW 3.7 mph 3.7 mph 53 % 0.0 in
15:59 12.8 °F 3.4 °F 1021.9 in NE 3.5 mph 3.5 mph 53 % 0.0 in
16:04 12.8 °F 3.4 °F 1020.9 in ENE 3.7 mph 3.7 mph 53 % 0.0 in
16:09 12.7 °F 3.1 °F 1020.9 in NW 3.7 mph   52 % 0.0 in
16:14 13.2 °F 3.8 °F 1020.9 in NE 5.6 mph 5.6 mph 53 % 0.0 in
16:19 13.4 °F 3.7 °F 1021.9 in WNW 5.6 mph 5.6 mph 52 % 0.0 in
16:24 13.7 °F 4.0 °F 1021.9 in NW 5.6 mph 5.6 mph 52 % 0.0 in
16:29 13.9 °F 4.2 °F 1021.9 in West 5.6 mph 5.6 mph 52 % 0.0 in
16:34 13.8 °F 3.8 °F 1021.9 in WSW 5.6 mph 5.6 mph 51 % 0.0 in
16:39 13.9 °F 3.9 °F 1021.9 in NW 5.6 mph 5.6 mph 51 % 0.0 in
16:44 13.9 °F 3.9 °F 1021.9 in West 9.3 mph 9.3 mph 51 % 0.0 in
16:49 13.8 °F 3.8 °F 1021.9 in WNW 5.6 mph 5.6 mph 51 % 0.0 in
16:54 13.5 °F 3.6 °F 1021.9 in West 4.7 mph 4.7 mph 51 % 0.0 in
16:59 13.4 °F 3.4 °F 1021.9 in West 9.3 mph 9.3 mph 51 % 0.0 in
17:04 13.3 °F 3.1 °F 1021.9 in West 3.7 mph 3.7 mph 50 % 0.0 in
17:09 13.3 °F 3.1 °F 1021.9 in WNW 5.6 mph 5.6 mph 50 % 0.0 in
17:14 13.1 °F 2.9 °F 1021.9 in West 5.6 mph 5.6 mph 50 % 0.0 in
17:19 12.9 °F 2.7 °F 1020.9 in West 5.6 mph 5.6 mph 50 % 0.0 in
17:24 12.6 °F 2.4 °F 1020.9 in WNW 4.2 mph 4.2 mph 50 % 0.0 in
17:29 12.5 °F 2.3 °F 1020.9 in West 5.6 mph 5.6 mph 50 % 0.0 in
17:34 12.3 °F 2.2 °F 1020.9 in West 3.7 mph 3.7 mph 50 % 0.0 in
17:39 12.0 °F 1.9 °F 1020.9 in WSW 5.0 mph 5.0 mph 50 % 0.0 in
17:44 11.8 °F 1.7 °F 1020.9 in NNW 5.6 mph 5.6 mph 50 % 0.0 in
17:49 11.6 °F 1.5 °F 1020.9 in NW 4.7 mph 5.0 mph 50 % 0.0 in
17:54 11.4 °F 1.3 °F 1020.9 in NW 7.6 mph 7.6 mph 50 % 0.0 in
17:59 11.3 °F 1.2 °F 1020.9 in West 9.3 mph 9.3 mph 50 % 0.0 in
18:04 11.1 °F 1.1 °F 1020.9 in NE 9.3 mph 9.3 mph 50 % 0.0 in
18:09 10.9 °F 0.9 °F 1020.9 in WNW 6.1 mph 6.1 mph 50 % 0.0 in
18:14 10.8 °F 0.8 °F 1020.9 in WSW 5.6 mph 5.6 mph 50 % 0.0 in
18:19 10.6 °F 0.6 °F 1020.9 in West 5.0 mph 5.0 mph 50 % 0.0 in
18:24 10.5 °F 0.5 °F 1020.9 in NW 7.4 mph 7.4 mph 50 % 0.0 in
18:29 10.4 °F 0.4 °F 1020.9 in WNW 3.7 mph 4.2 mph 50 % 0.0 in
18:34 10.3 °F 0.3 °F 1020.9 in West 4.7 mph 4.7 mph 50 % 0.0 in
18:39 10.2 °F 0.5 °F 1020.9 in SW 3.7 mph   51 % 0.0 in
18:44 10.1 °F 0.4 °F 1020.9 in WSW 5.6 mph 5.6 mph 51 % 0.0 in
18:49 10.0 °F 0.3 °F 1020.9 in SW 5.6 mph 5.6 mph 51 % 0.0 in
18:50 5.5 °F -1.0 °F 1019.9 in Calm   1.6 mph 63 % 0.0 in
18:54 9.9 °F 0.2 °F 1020.9 in NW 3.7 mph 3.7 mph 51 % 0.0 in
18:59 9.9 °F 0.2 °F 1020.9 in NNW 3.7 mph   51 % 0.0 in
19:00 5.6 °F -0.9 °F 1019.9 in Calm   1.6 mph 63 % 0.0 in
19:04 9.8 °F 0.1 °F 1020.9 in WNW 4.7 mph 4.7 mph 51 % 0.0 in
19:09 9.7 °F 0.1 °F 1020.9 in WSW 5.6 mph 5.6 mph 51 % 0.0 in
19:10 5.5 °F -1.0 °F 1018.8 in Calm   1.6 mph 63 % 0.0 in
19:14 9.6 °F -0.1 °F 1020.9 in NNE 3.7 mph 3.7 mph 51 % 0.0 in
19:19 9.4 °F -0.2 °F 1020.9 in WSW 3.9 mph 3.9 mph 51 % 0.0 in
19:20 5.3 °F -0.9 °F 1019.9 in NNW 1.6 mph 3.2 mph 64 % 0.0 in
19:24 9.3 °F -0.3 °F 1020.9 in WNW 3.7 mph 4.2 mph 51 % 0.0 in
19:29 9.2 °F -0.2 °F 1020.9 in WSW 3.7 mph 3.7 mph 52 % 0.0 in
19:30 5.1 °F -1.2 °F 1019.9 in Calm   3.2 mph 64 % 0.0 in
19:34 9.2 °F -0.2 °F 1020.9 in ENE 3.9 mph 3.9 mph 52 % 0.0 in
19:39 9.2 °F -0.2 °F 1020.9 in North 7.4 mph 7.4 mph 52 % 0.0 in
19:40 5.1 °F -1.2 °F 1018.8 in NE 3.2 mph 3.2 mph 64 % 0.0 in
19:44 9.0 °F -0.3 °F 1020.9 in WSW 3.7 mph 3.7 mph 52 % 0.0 in
19:49 8.9 °F -0.4 °F 1020.9 in ENE 1.9 mph   52 % 0.0 in
19:50 5.0 °F -1.3 °F 1018.8 in Calm   1.6 mph 64 % 0.0 in
19:54 8.9 °F -0.4 °F 1020.9 in NE 5.6 mph 5.6 mph 52 % 0.0 in
19:59 8.8 °F -0.6 °F 1020.9 in ENE 3.7 mph 3.7 mph 52 % 0.0 in
20:00 4.7 °F -1.6 °F 1018.8 in Calm   1.6 mph 64 % 0.0 in
20:04 8.8 °F -0.6 °F 1019.9 in NNE 7.4 mph 7.4 mph 52 % 0.0 in
20:09 8.7 °F -0.3 °F 1019.9 in NW 1.9 mph 1.9 mph 53 % 0.0 in
20:10 4.6 °F -1.4 °F 1017.8 in Calm   1.6 mph 65 % 0.0 in
20:14 8.6 °F -0.4 °F 1019.9 in North 1.9 mph 1.9 mph 53 % 0.0 in
20:19 8.5 °F -0.6 °F 1019.9 in West 1.9 mph   53 % 0.0 in
20:20 4.6 °F -1.4 °F 1017.8 in WNW 1.6 mph 1.6 mph 65 % 0.0 in
20:24 8.6 °F -0.4 °F 1019.9 in West 2.6 mph 2.6 mph 53 % 0.0 in
20:29 8.6 °F -0.4 °F 1019.9 in WNW 1.9 mph   53 % 0.0 in
20:30 4.3 °F -1.7 °F 1017.8 in WSW 1.6 mph 3.2 mph 65 % 0.0 in
20:34 8.4 °F -0.6 °F 1019.9 in ENE 1.9 mph 1.9 mph 53 % 0.0 in
20:39 8.3 °F -0.7 °F 1019.9 in ENE 1.9 mph   53 % 0.0 in
20:40 4.4 °F -1.4 °F 1017.8 in Calm   4.8 mph 66 % 0.0 in
20:44 8.2 °F -0.8 °F 1019.9 in Calm     53 % 0.0 in
20:49 8.0 °F -1.0 °F 1019.9 in SW 2.3 mph 2.3 mph 53 % 0.0 in
20:50 4.4 °F -1.4 °F 1017.8 in Calm   3.2 mph 66 % 0.0 in
20:54 7.8 °F -0.9 °F 1019.9 in SW 1.9 mph 1.9 mph 54 % 0.0 in
20:59 7.7 °F -1.1 °F 1019.9 in Calm     54 % 0.0 in
21:00 4.3 °F -1.7 °F 1017.8 in WNW 3.2 mph 3.2 mph 65 % 0.0 in
21:04 7.7 °F -1.1 °F 1019.9 in SW 3.7 mph 3.7 mph 54 % 0.0 in
21:09 7.8 °F -0.9 °F 1019.9 in SW 3.7 mph 3.7 mph 54 % 0.0 in
21:10 4.2 °F -1.8 °F 1018.8 in West 3.2 mph 4.8 mph 65 % 0.0 in
21:14 7.7 °F -1.1 °F 1019.9 in WSW 1.9 mph   54 % 0.0 in
21:19 7.7 °F -1.1 °F 1019.9 in WSW 1.9 mph   54 % 0.0 in
21:20 4.1 °F -1.7 °F 1017.8 in Calm   4.8 mph 66 % 0.0 in
21:24 7.7 °F -1.1 °F 1019.9 in ENE 2.3 mph 2.3 mph 54 % 0.0 in
21:29 7.7 °F -0.8 °F 1019.9 in NW 1.9 mph   55 % 0.0 in
21:30 3.9 °F -1.9 °F 1017.8 in SW 3.2 mph 3.2 mph 66 % 0.0 in
21:34 7.7 °F -0.8 °F 1019.9 in NNE 3.7 mph 3.7 mph 55 % 0.0 in
21:39 7.6 °F -0.9 °F 1019.9 in WNW 1.9 mph   55 % 0.0 in
21:40 3.7 °F -2.1 °F 1017.8 in SW 3.2 mph 4.8 mph 66 % 0.0 in
21:44 7.4 °F -0.8 °F 1019.9 in Calm     56 % 0.0 in
21:49 7.4 °F -0.8 °F 1019.9 in NNE 3.7 mph 3.7 mph 56 % 0.0 in
21:50 3.8 °F -2.0 °F 1017.8 in WSW 3.2 mph 4.8 mph 66 % 0.0 in
21:54 7.2 °F -0.8 °F 1019.9 in WNW 2.6 mph   57 % 0.0 in
21:59 7.2 °F -0.8 °F 1019.9 in WNW 1.9 mph   57 % 0.0 in
22:00 4.0 °F -1.8 °F 1017.8 in West 3.2 mph 6.4 mph 66 % 0.0 in
22:04 7.1 °F -0.8 °F 1018.8 in ENE 3.7 mph   57 % 0.0 in
22:09 7.0 °F -0.9 °F 1018.8 in WSW 3.7 mph 3.7 mph 57 % 0.0 in
22:10 4.0 °F -1.4 °F 1017.8 in WSW 1.6 mph 3.2 mph 68 % 0.0 in
22:14 6.6 °F -1.3 °F 1018.8 in SW 3.7 mph 3.7 mph 57 % 0.0 in
22:19 6.6 °F -1.3 °F 1020.9 in WNW 5.6 mph 5.6 mph 57 % 0.0 in
22:20 4.0 °F -1.6 °F 1017.8 in West 1.6 mph 3.2 mph 67 % 0.0 in
22:24 6.8 °F -1.1 °F 1020.9 in WSW 5.6 mph 5.6 mph 57 % 0.0 in
22:29 6.9 °F -0.8 °F 1020.9 in WSW 3.7 mph 3.7 mph 58 % 0.0 in
22:34 6.8 °F -0.9 °F 1021.9 in SW 3.7 mph 3.7 mph 58 % 0.0 in
22:39 6.8 °F -0.9 °F 1021.9 in SW 2.3 mph 2.3 mph 58 % 0.0 in
22:40 4.0 °F -1.2 °F 1016.8 in NW 1.6 mph 3.2 mph 69 % 0.0 in
22:44 6.7 °F -1.0 °F 1021.9 in SW 1.9 mph 2.3 mph 58 % 0.0 in
22:49 6.5 °F -0.9 °F 1020.9 in WSW 1.9 mph   59 % 0.0 in
22:50 4.1 °F -1.3 °F 1017.8 in Calm   3.2 mph 68 % 0.0 in
22:54 6.4 °F -1.1 °F 1020.9 in SW 1.9 mph 1.9 mph 59 % 0.0 in
22:59 6.3 °F -1.1 °F 1020.9 in SW 1.9 mph   59 % 0.0 in
23:00 4.1 °F -1.1 °F 1017.8 in Calm   1.6 mph 69 % 0.0 in
23:04 6.2 °F -1.0 °F 1020.9 in East 2.6 mph 2.6 mph 60 % 0.0 in
23:09 6.2 °F -1.0 °F 1020.9 in NNE 2.3 mph   60 % 0.0 in
23:10 3.9 °F -1.3 °F 1018.8 in North 1.6 mph 3.2 mph 69 % 0.0 in
23:14 6.3 °F -0.9 °F 1020.9 in SW 3.7 mph 3.7 mph 60 % 0.0 in
23:19 6.2 °F -1.0 °F 1020.9 in WNW 3.7 mph 3.7 mph 60 % 0.0 in
23:20 3.9 °F -1.3 °F 1017.8 in North 1.6 mph 3.2 mph 69 % 0.0 in
23:24 6.2 °F -0.8 °F 1020.9 in South 1.9 mph   61 % 0.0 in
23:29 6.2 °F -0.8 °F 1020.9 in Calm     61 % 0.0 in
23:30 4.0 °F -1.2 °F 1017.8 in Calm     69 % 0.0 in
23:34 6.2 °F -0.8 °F 1019.9 in WSW 1.9 mph 1.9 mph 61 % 0.0 in
23:39 5.9 °F -1.1 °F 1019.9 in WSW 3.7 mph 3.7 mph 61 % 0.0 in
23:40 3.9 °F -1.3 °F 1018.8 in Calm   1.6 mph 69 % 0.0 in
23:44 6.1 °F -0.7 °F 1019.9 in WSW 3.7 mph 3.7 mph 62 % 0.0 in
23:49 5.7 °F -1.2 °F 1019.9 in WSW 1.9 mph 1.9 mph 61 % 0.0 in
23:50 3.9 °F -1.1 °F 1017.8 in Calm   1.6 mph 70 % 0.0 in
23:54 5.7 °F -1.0 °F 1019.9 in Calm     62 % 0.0 in
23:59 5.7 °F -1.2 °F 1019.9 in WSW 2.6 mph 2.6 mph 61 % 0.0 in
Meteo Sesrovires
Elogis d' Weather Underground - 2 mb

Guio original per  Jim McMurry - jmcmurry@mwt.net Adaptat per a la plantilla per  Wim van der Kuil - Leuven-Template.eu

Trobareu la nostra informacio del temps tambe a:

Weather Underground

AWEKAS